createdAt,value
2022-08-07T00:00:58.211Z,11.93
2022-08-07T00:04:24.628Z,11.83
2022-08-07T00:07:27.168Z,11.81
2022-08-07T00:10:47.714Z,11.82
2022-08-07T00:14:17.129Z,11.75
2022-08-07T00:17:26.701Z,11.68
2022-08-07T00:20:36.297Z,11.70
2022-08-07T00:23:47.575Z,11.57
2022-08-07T00:27:06.193Z,11.57
2022-08-07T00:30:21.721Z,11.51
2022-08-07T00:33:29.845Z,11.60
2022-08-07T00:36:34.347Z,11.64
2022-08-07T00:39:35.967Z,11.58
2022-08-07T00:43:09.679Z,11.58
2022-08-07T00:46:12.158Z,11.55
2022-08-07T00:49:24.630Z,11.53
2022-08-07T00:52:37.295Z,11.44
2022-08-07T00:56:03.181Z,11.49
2022-08-07T00:59:04.805Z,11.53
2022-08-07T01:02:14.134Z,11.49
2022-08-07T01:05:31.171Z,11.52
2022-08-07T01:08:43.076Z,11.49
2022-08-07T01:12:27.623Z,11.50
2022-08-07T01:15:17.688Z,11.50
2022-08-07T01:18:20.095Z,11.44
2022-08-07T01:21:27.538Z,11.37
2022-08-07T01:24:32.478Z,11.35
2022-08-07T01:27:35.817Z,11.29
2022-08-07T01:30:44.468Z,11.19
2022-08-07T01:33:55.031Z,11.11
2022-08-07T01:37:00.325Z,11.09
2022-08-07T01:40:06.112Z,11.04
2022-08-07T01:43:26.589Z,11.02
2022-08-07T01:46:37.160Z,11.01
2022-08-07T01:49:42.933Z,11.02
2022-08-07T01:52:49.618Z,10.98
2022-08-07T01:56:03.828Z,11.01
2022-08-07T01:59:18.783Z,11.04
2022-08-07T02:02:32.813Z,10.98
2022-08-07T02:05:59.580Z,10.90
2022-08-07T02:09:06.210Z,10.87
2022-08-07T02:12:10.971Z,10.90
2022-08-07T02:15:26.379Z,10.88
2022-08-07T02:18:32.728Z,10.82
2022-08-07T02:21:56.542Z,10.75
2022-08-07T02:24:59.561Z,10.73
2022-08-07T02:28:02.872Z,10.72
2022-08-07T02:31:28.453Z,10.64
2022-08-07T02:34:33.029Z,10.62
2022-08-07T02:37:43.865Z,10.71
2022-08-07T02:40:47.361Z,10.64
2022-08-07T02:43:50.961Z,10.56
2022-08-07T02:46:58.291Z,10.55
2022-08-07T02:50:05.505Z,10.48
2022-08-07T02:53:20.371Z,10.48
2022-08-07T02:56:28.088Z,10.61
2022-08-07T02:59:32.450Z,10.59
2022-08-07T03:02:41.937Z,10.53
2022-08-07T03:05:57.874Z,10.51
2022-08-07T03:09:01.663Z,10.49
2022-08-07T03:12:04.659Z,10.39
2022-08-07T03:15:09.853Z,10.30
2022-08-07T03:18:17.544Z,10.21
2022-08-07T03:21:23.532Z,10.20
2022-08-07T03:24:26.765Z,10.19
2022-08-07T03:27:59.490Z,10.19
2022-08-07T03:30:53.087Z,10.21
2022-08-07T03:34:02.342Z,10.18
2022-08-07T03:37:12.189Z,10.16
2022-08-07T03:40:18.506Z,10.12
2022-08-07T03:43:23.711Z,10.12
2022-08-07T03:46:29.802Z,10.16
2022-08-07T03:49:32.266Z,10.10
2022-08-07T03:52:34.987Z,10.08
2022-08-07T03:55:58.304Z,10.03
2022-08-07T03:59:08.246Z,9.97
2022-08-07T04:02:14.780Z,10.05
2022-08-07T04:05:20.325Z,10.03
2022-08-07T04:08:32.251Z,10.06
2022-08-07T04:12:24.481Z,10.12
2022-08-07T04:14:59.471Z,10.16
2022-08-07T04:18:56.363Z,10.13
2022-08-07T04:21:25.866Z,10.11
2022-08-07T04:24:39.018Z,10.18
2022-08-07T04:27:59.132Z,10.14
2022-08-07T04:31:02.109Z,10.16
2022-08-07T04:34:16.679Z,10.14
2022-08-07T04:37:20.474Z,10.14
2022-08-07T04:40:26.742Z,10.19
2022-08-07T04:44:12.843Z,10.27
2022-08-07T04:47:57.903Z,10.40
2022-08-07T04:51:27.122Z,10.51
2022-08-07T04:54:36.869Z,10.68
2022-08-07T04:58:32.132Z,10.85
2022-08-07T05:01:46.841Z,10.95
2022-08-07T05:04:55.501Z,11.08
2022-08-07T05:08:07.628Z,11.14
2022-08-07T05:11:24.313Z,11.22
2022-08-07T05:14:55.214Z,11.29
2022-08-07T05:18:01.352Z,11.34
2022-08-07T05:21:07.754Z,11.42
2022-08-07T05:24:15.389Z,11.50
2022-08-07T05:28:02.010Z,11.59
2022-08-07T05:30:42.268Z,11.67
2022-08-07T05:33:51.374Z,11.78
2022-08-07T05:37:05.721Z,11.86
2022-08-07T05:40:19.147Z,12.00
2022-08-07T05:43:49.798Z,12.87
2022-08-07T05:46:51.244Z,15.93
2022-08-07T05:49:58.446Z,18.52
2022-08-07T05:53:02.659Z,19.76
2022-08-07T05:56:09.038Z,20.40
2022-08-07T05:59:20.854Z,20.45
2022-08-07T06:02:31.436Z,21.04
2022-08-07T06:05:37.770Z,21.05
2022-08-07T06:08:45.158Z,21.10
2022-08-07T06:14:54.342Z,21.95
2022-08-07T06:18:02.447Z,22.95
2022-08-07T06:22:14.391Z,23.39
2022-08-07T06:24:45.812Z,22.18
2022-08-07T06:28:01.575Z,20.42
2022-08-07T06:31:05.783Z,18.79
2022-08-07T06:34:07.829Z,17.69
2022-08-07T06:37:11.319Z,17.11
2022-08-07T06:40:21.395Z,17.01
2022-08-07T06:43:27.476Z,16.71
2022-08-07T06:46:53.601Z,16.77
2022-08-07T06:50:08.720Z,16.81
2022-08-07T06:53:49.218Z,17.01
2022-08-07T06:56:38.652Z,17.43
2022-08-07T07:00:13.863Z,17.50
2022-08-07T07:03:26.322Z,17.58
2022-08-07T07:07:00.629Z,17.85
2022-08-07T07:10:04.025Z,17.84
2022-08-07T07:13:16.562Z,18.26
2022-08-07T07:16:49.625Z,18.74
2022-08-07T07:19:59.065Z,18.92
2022-08-07T07:24:06.133Z,19.70
2022-08-07T07:26:34.632Z,20.72
2022-08-07T07:30:09.364Z,22.21
2022-08-07T07:33:06.004Z,23.94
2022-08-07T07:36:13.274Z,25.41
2022-08-07T07:39:20.995Z,25.31
2022-08-07T07:42:32.875Z,25.45
2022-08-07T07:46:38.022Z,24.54
2022-08-07T07:49:09.340Z,25.09
2022-08-07T07:52:25.361Z,25.74
2022-08-07T07:55:37.521Z,25.62
2022-08-07T07:58:47.200Z,25.28
2022-08-07T08:02:01.530Z,25.86
2022-08-07T08:05:14.190Z,25.81
2022-08-07T08:08:34.581Z,26.24
2022-08-07T08:11:59.335Z,26.90
2022-08-07T08:15:01.342Z,26.35
2022-08-07T08:18:17.611Z,26.33
2022-08-07T08:21:20.179Z,26.51
2022-08-07T08:24:45.590Z,26.99
2022-08-07T08:27:55.989Z,28.38
2022-08-07T08:31:01.378Z,28.60
2022-08-07T08:34:05.456Z,27.03
2022-08-07T08:38:00.576Z,27.95
2022-08-07T08:40:38.566Z,28.22
2022-08-07T08:44:41.174Z,27.75
2022-08-07T08:48:06.373Z,28.20
2022-08-07T08:51:29.574Z,28.20
2022-08-07T08:54:36.632Z,27.64
2022-08-07T08:57:45.235Z,26.68
2022-08-07T09:00:54.707Z,26.88
2022-08-07T09:04:08.862Z,26.79
2022-08-07T09:07:27.121Z,27.14
2022-08-07T09:10:44.084Z,26.59
2022-08-07T09:13:58.207Z,26.44
2022-08-07T09:17:18.529Z,26.61
2022-08-07T09:21:03.977Z,27.16
2022-08-07T09:24:55.997Z,26.88
2022-08-07T09:28:05.837Z,27.67
2022-08-07T09:31:54.781Z,25.75
2022-08-07T09:36:01.092Z,25.96
2022-08-07T09:38:54.657Z,26.27
2022-08-07T09:42:09.245Z,26.27
2022-08-07T09:47:25.245Z,24.91
2022-08-07T09:50:02.104Z,24.95
2022-08-07T09:52:42.357Z,25.24
2022-08-07T09:56:04.512Z,25.61
2022-08-07T09:59:14.744Z,26.89
2022-08-07T10:02:55.619Z,25.85
2022-08-07T10:06:24.582Z,26.49
2022-08-07T10:10:00.985Z,26.04
2022-08-07T10:14:00.075Z,26.11
2022-08-07T10:18:02.635Z,24.62
2022-08-07T10:21:19.814Z,25.30
2022-08-07T10:25:15.265Z,25.11
2022-08-07T10:28:40.981Z,26.06
2022-08-07T10:32:51.681Z,25.83
2022-08-07T10:36:05.510Z,25.91
2022-08-07T10:40:03.451Z,26.71
2022-08-07T10:43:34.844Z,25.79
2022-08-07T10:46:48.189Z,26.38
2022-08-07T10:50:03.942Z,25.21
2022-08-07T10:53:21.605Z,25.23
2022-08-07T10:56:45.884Z,25.68
2022-08-07T11:00:01.090Z,25.54
2022-08-07T11:03:27.922Z,26.36
2022-08-07T11:07:56.247Z,26.61
2022-08-07T11:11:07.774Z,26.68
2022-08-07T11:14:44.578Z,26.49
2022-08-07T11:18:03.619Z,25.95
2022-08-07T11:21:27.630Z,25.65
2022-08-07T11:24:48.770Z,26.05
2022-08-07T11:28:21.137Z,26.39
2022-08-07T11:31:35.365Z,26.33
2022-08-07T11:34:46.267Z,25.76
2022-08-07T11:38:12.863Z,25.60
2022-08-07T11:41:31.084Z,25.61
2022-08-07T11:44:58.544Z,26.66
2022-08-07T11:48:18.069Z,25.42
2022-08-07T11:51:59.035Z,25.40
2022-08-07T11:55:18.720Z,25.38
2022-08-07T11:58:39.137Z,25.99
2022-08-07T12:01:59.982Z,25.79
2022-08-07T12:05:28.492Z,25.99
2022-08-07T12:08:45.637Z,25.82
2022-08-07T12:12:09.290Z,25.70
2022-08-07T12:15:35.719Z,25.89
2022-08-07T12:18:51.027Z,25.75
2022-08-07T12:22:38.819Z,25.75
2022-08-07T12:26:05.852Z,26.13
2022-08-07T12:29:37.570Z,25.48
2022-08-07T12:32:45.206Z,25.69
2022-08-07T12:35:52.139Z,25.74
2022-08-07T12:39:02.759Z,26.73
2022-08-07T12:42:13.370Z,26.33
2022-08-07T12:45:21.066Z,26.08
2022-08-07T12:48:27.879Z,26.21
2022-08-07T12:52:14.350Z,26.88
2022-08-07T12:55:41.092Z,26.49
2022-08-07T12:58:46.760Z,25.72
2022-08-07T13:02:18.665Z,25.74
2022-08-07T13:06:03.305Z,25.80
2022-08-07T13:10:38.034Z,25.64
2022-08-07T13:13:46.834Z,25.14
2022-08-07T13:16:50.956Z,25.12
2022-08-07T13:20:04.904Z,25.38
2022-08-07T13:24:00.788Z,25.41
2022-08-07T13:26:47.659Z,25.40
2022-08-07T13:30:03.585Z,25.11
2022-08-07T13:34:14.782Z,25.60
2022-08-07T13:36:54.349Z,24.91
2022-08-07T13:40:35.881Z,24.55
2022-08-07T13:43:45.504Z,24.25
2022-08-07T13:46:58.307Z,24.63
2022-08-07T13:50:44.130Z,24.49
2022-08-07T13:53:59.455Z,23.98
2022-08-07T13:57:02.772Z,24.07
2022-08-07T14:00:07.266Z,23.41
2022-08-07T14:03:15.139Z,23.38
2022-08-07T14:06:34.185Z,23.33
2022-08-07T14:10:01.950Z,24.05
2022-08-07T14:13:01.900Z,23.77
2022-08-07T14:16:15.323Z,23.59
2022-08-07T14:20:42.635Z,23.45
2022-08-07T14:23:02.979Z,23.51
2022-08-07T14:26:10.345Z,23.47
2022-08-07T14:33:01.668Z,23.34
2022-08-07T14:36:08.791Z,23.16
2022-08-07T14:39:12.501Z,22.79
2022-08-07T14:43:01.228Z,22.93
2022-08-07T14:45:59.928Z,23.89
2022-08-07T14:49:55.701Z,23.98
2022-08-07T14:52:28.779Z,23.92
2022-08-07T14:55:34.634Z,23.59
2022-08-07T14:59:02.156Z,23.59
2022-08-07T15:02:33.937Z,22.74
2022-08-07T15:05:43.438Z,22.96
2022-08-07T15:09:59.013Z,23.08
2022-08-07T15:12:30.953Z,23.28
2022-08-07T15:15:42.848Z,22.85
2022-08-07T15:18:47.497Z,23.41
2022-08-07T15:22:03.819Z,23.28
2022-08-07T15:25:17.433Z,23.44
2022-08-07T15:28:35.117Z,23.28
2022-08-07T15:32:00.909Z,23.48
2022-08-07T15:35:04.614Z,23.13
2022-08-07T15:38:17.937Z,23.82
2022-08-07T15:42:44.857Z,23.38
2022-08-07T15:44:53.734Z,23.49
2022-08-07T15:48:20.342Z,24.00
2022-08-07T15:54:48.126Z,23.39
2022-08-07T15:57:53.838Z,23.36
2022-08-07T16:01:05.361Z,23.69
2022-08-07T16:04:14.699Z,24.03
2022-08-07T16:08:28.316Z,23.38
2022-08-07T16:10:47.193Z,23.19
2022-08-07T16:14:02.768Z,22.46
2022-08-07T16:18:01.430Z,22.68
2022-08-07T16:22:02.366Z,23.06
2022-08-07T16:24:34.434Z,22.96
2022-08-07T16:27:57.365Z,22.64
2022-08-07T16:31:50.989Z,22.60
2022-08-07T16:34:57.145Z,22.37
2022-08-07T16:39:00.114Z,21.82
2022-08-07T16:42:24.546Z,21.67
2022-08-07T16:46:34.638Z,21.60
2022-08-07T16:50:20.465Z,21.36
2022-08-07T16:53:48.338Z,21.46
2022-08-07T16:56:54.059Z,21.72
2022-08-07T17:00:04.355Z,21.97
2022-08-07T17:03:18.572Z,21.59
2022-08-07T17:06:46.509Z,21.67
2022-08-07T17:10:07.533Z,21.46
2022-08-07T17:13:16.048Z,21.30
2022-08-07T17:16:24.933Z,21.17
2022-08-07T17:20:02.852Z,21.14
2022-08-07T17:23:13.928Z,21.37
2022-08-07T17:26:34.865Z,21.36
2022-08-07T17:30:16.160Z,21.33
2022-08-07T17:33:39.171Z,21.05
2022-08-07T17:37:09.041Z,20.95
2022-08-07T17:40:36.380Z,20.91
2022-08-07T17:44:01.938Z,20.71
2022-08-07T17:47:16.602Z,20.53
2022-08-07T17:50:47.001Z,20.55
2022-08-07T17:54:02.272Z,20.41
2022-08-07T17:57:56.605Z,20.15
2022-08-07T18:00:54.824Z,19.93
2022-08-07T18:04:06.905Z,19.73
2022-08-07T18:07:22.913Z,19.62
2022-08-07T18:12:17.575Z,19.40
2022-08-07T18:14:28.954Z,19.20
2022-08-07T18:18:47.449Z,19.10
2022-08-07T18:21:51.860Z,18.95
2022-08-07T18:24:58.987Z,18.88
2022-08-07T18:28:35.500Z,18.82
2022-08-07T18:31:56.598Z,18.64
2022-08-07T18:35:07.892Z,18.55
2022-08-07T18:38:55.110Z,18.52
2022-08-07T18:42:13.078Z,18.42
2022-08-07T18:45:44.210Z,18.32
2022-08-07T18:50:19.056Z,18.28
2022-08-07T18:52:56.938Z,18.17
2022-08-07T18:56:13.593Z,18.09
2022-08-07T18:59:46.681Z,17.98
2022-08-07T19:03:11.951Z,17.86
2022-08-07T19:06:33.535Z,17.85
2022-08-07T19:10:00.673Z,17.72
2022-08-07T19:13:26.223Z,17.62
2022-08-07T19:16:43.628Z,17.45
2022-08-07T19:20:03.034Z,17.33
2022-08-07T19:23:20.941Z,17.31
2022-08-07T19:27:01.684Z,17.23
2022-08-07T19:30:56.319Z,17.17
2022-08-07T19:33:38.962Z,17.13
2022-08-07T19:36:51.867Z,17.04
2022-08-07T19:40:02.206Z,16.93
2022-08-07T19:43:21.570Z,16.85
2022-08-07T19:46:55.879Z,16.79
2022-08-07T19:50:02.898Z,16.81
2022-08-07T19:54:31.282Z,16.73
2022-08-07T19:57:50.890Z,16.73
2022-08-07T20:00:10.117Z,16.65
2022-08-07T20:03:35.336Z,16.62
2022-08-07T20:06:42.837Z,16.57
2022-08-07T20:10:36.477Z,16.51
2022-08-07T20:13:23.578Z,16.43
2022-08-07T20:16:34.697Z,16.44
2022-08-07T20:19:48.286Z,16.40
2022-08-07T20:23:23.318Z,16.27
2022-08-07T20:26:32.773Z,16.26
2022-08-07T20:29:59.246Z,16.16
2022-08-07T20:33:04.614Z,16.17
2022-08-07T20:36:13.237Z,16.13
2022-08-07T20:40:01.154Z,16.02
2022-08-07T20:42:50.446Z,15.96
2022-08-07T20:46:28.340Z,15.91
2022-08-07T20:50:00.834Z,15.86
2022-08-07T20:52:51.313Z,15.79
2022-08-07T20:55:59.743Z,15.75
2022-08-07T20:59:05.747Z,15.65
2022-08-07T21:02:27.691Z,15.48
2022-08-07T21:05:55.822Z,15.44
2022-08-07T21:09:02.439Z,15.33
2022-08-07T21:12:15.093Z,15.36
2022-08-07T21:15:21.896Z,15.39
2022-08-07T21:18:46.215Z,15.38
2022-08-07T21:21:56.983Z,15.25
2022-08-07T21:25:13.570Z,15.21
2022-08-07T21:28:48.982Z,15.12
2022-08-07T21:32:46.822Z,15.07
2022-08-07T21:35:34.633Z,14.99
2022-08-07T21:39:45.137Z,14.84
2022-08-07T21:42:56.479Z,14.71
2022-08-07T21:46:24.757Z,14.70
2022-08-07T21:49:40.425Z,14.60
2022-08-07T21:53:12.482Z,14.60
2022-08-07T21:56:48.244Z,14.60
2022-08-07T22:00:22.868Z,14.49
2022-08-07T22:04:00.651Z,14.51
2022-08-07T22:07:14.502Z,14.38
2022-08-07T22:10:24.732Z,14.34
2022-08-07T22:13:50.354Z,14.36
2022-08-07T22:17:00.603Z,14.38
2022-08-07T22:20:22.889Z,14.28
2022-08-07T22:23:44.853Z,14.25
2022-08-07T22:26:58.536Z,14.20
2022-08-07T22:30:12.973Z,14.11
2022-08-07T22:33:16.983Z,14.17
2022-08-07T22:36:56.615Z,14.10
2022-08-07T22:40:18.239Z,14.02
2022-08-07T22:43:43.476Z,13.98
2022-08-07T22:47:17.038Z,13.89
2022-08-07T22:50:56.537Z,13.84
2022-08-07T22:54:07.873Z,13.86
2022-08-07T22:57:48.096Z,13.79
2022-08-07T23:01:16.385Z,13.81
2022-08-07T23:04:29.864Z,13.72
2022-08-07T23:07:42.400Z,13.62
2022-08-07T23:11:17.101Z,13.63
2022-08-07T23:14:32.273Z,13.57
2022-08-07T23:18:08.029Z,13.55
2022-08-07T23:21:39.948Z,13.57
2022-08-07T23:24:50.162Z,13.60
2022-08-07T23:28:22.472Z,13.73
2022-08-07T23:34:20.951Z,13.69
2022-08-07T23:35:49.145Z,13.57
2022-08-07T23:39:09.599Z,13.50
2022-08-07T23:42:49.557Z,13.44
2022-08-07T23:46:19.969Z,13.46
2022-08-07T23:49:50.379Z,13.49
2022-08-07T23:53:08.739Z,13.41
2022-08-07T23:56:26.697Z,13.40
